Latest Coastal Weather Observations for Double Island Point

IDQ60701

Issued at 10:12 am EST Monday 27 April 2015 (issued every 10 minutes, with the page automatically refreshed every 10 minutes)

About coastal observations | Map of coastal stations | Coastal observations for QLD | Marine services | Other Formats
Station Details ID: 040068 Name: DOUBLE ISLAND POINT LIGHTHOUSE Lat: -25.93 Lon: 153.19 Height: 95.64 m
Data from the previous 72 hours. | See also: Recent months at Double Island Point
Date/Time
EST
Temp

°C
Wind Pressure Rain
since 9am
mm
Weather Cloud Vis
km
Sea
Height
m
Swell
Dir
 
Speed
knots
Gust
knots
hPa Trend Height
m
Period
s
Dir
27/10:00am 20.1 S 13 16 1017.5 - 0.0 - - - - - - -
27/09:30am 19.7 S 13 17 1017.4 - 0.0 - - - - - - -
27/09:00am 19.6 SSE 13 17 1017.3 - 0.0 - - - - - - -
27/08:30am 18.8 S 12 15 1017.1 - 0.0 - - - - - - -
27/08:00am 18.2 S 10 13 1016.9 - 0.0 - - - - - - -
27/07:30am 17.3 SSW 11 13 1016.6 - 0.0 - - - - - - -
27/07:00am 16.2 SW 9 11 1016.5 - 0.0 - - - - - - -
27/06:30am 15.1 SW 10 12 1016.2 - 0.0 - - - - - - -
27/06:00am 15.3 SW 9 10 1016.1 - 0.0 - - - - - - -
27/05:30am 15.6 WSW 8 12 1015.7 - 0.0 - - - - - - -
27/05:00am 15.4 W 5 7 1015.4 - 0.0 - - - - - - -
27/04:30am 15.2 SW 6 12 1015.1 - 0.0 - - - - - - -
27/04:00am 15.5 SW 9 15 1014.8 - 0.0 - - - - - - -
27/03:30am 15.8 SW 12 15 1014.7 - 0.0 - - - - - - -
27/03:00am 15.3 SW 13 15 1014.8 - 0.0 - - - - - - -
27/02:30am 15.5 WSW 12 13 1014.9 - 0.0 - - - - - - -
27/02:00am 16.0 WSW 11 13 1015.2 - 0.0 - - - - - - -
27/01:30am 15.6 W 10 12 1015.3 - 0.0 - - - - - - -
27/01:00am 15.6 W 9 9 1015.5 - 0.0 - - - - - - -
27/12:30am 15.8 W 10 12 1015.4 - 0.0 - - - - - - -
27/12:00am 16.2 W 8 10 1015.7 - 0.0 - - - - - - -
 
Date/Time
EST
Temp

°C
Wind Pressure Rain
since 9am
mm
Weather Cloud Vis
km
Sea
Height
m
Swell
Dir
 
Speed
knots
Gust
knots
hPa Trend Height
m
Period
s
Dir
26/11:30pm 16.1 WSW 8 12 1015.6 - 0.0 - - - - - - -
26/11:00pm 16.2 SW 8 10 1015.8 - 0.0 - - - - - - -
26/10:30pm 16.6 SW 11 14 1015.6 - 0.0 - - - - - - -
26/10:00pm 16.9 SSW 12 20 1015.8 - 0.0 - - - - - - -
26/09:30pm 17.5 SW 18 26 1015.7 - 0.0 - - - - - - -
26/09:00pm 18.1 SSW 17 21 1015.7 - 0.0 - - - - - - -
26/08:30pm 18.5 SSW 15 21 1015.5 - 0.0 - - - - - - -
26/08:00pm 19.1 SW 15 18 1015.2 - 0.0 - - - - - - -
26/07:30pm 18.9 SSW 11 13 1014.7 - 0.0 - - - - - - -
26/07:00pm 19.3 SSW 12 14 1014.1 - 0.0 - - - - - - -
26/06:30pm 20.1 SSW 12 16 1013.5 - 0.0 - - - - - - -
26/06:00pm 20.5 SW 11 15 1012.9 - 0.0 - - - - - - -
26/05:30pm 21.0 SW 12 17 1012.5 - 0.0 - - - - - - -
26/05:00pm 22.3 SW 13 18 1012.0 - 0.0 - - - - - - -
26/04:30pm 23.1 SW 11 17 1011.5 - 0.0 - - - - - - -
26/04:00pm 24.2 WSW 11 14 1011.1 - 0.0 - - - - - - -
26/03:30pm 24.3 WSW 11 15 1010.9 - 0.0 - - - - - - -
26/03:00pm 24.1 SW 16 23 1010.6 - 0.0 - - - - - - -
26/02:30pm 24.8 W 10 17 1010.4 - 0.0 - - - - - - -
26/02:00pm 24.3 W 10 15 1010.2 - 0.0 - - - - - - -
26/01:30pm 24.1 W 12 18 1010.1 - 0.0 - - - - - - -
26/01:00pm 23.2 W 14 23 1010.2 - 0.0 - - - - - - -
26/12:30pm 22.8 W 10 16 1010.7 - 0.0 - - - - - - -
26/12:00pm 22.8 W 11 20 1010.8 - 0.0 - - - - - - -
26/11:30am 23.4 W 8 13 1011.3 - 0.0 - - - - - - -
26/11:00am 22.2 WSW 10 17 1011.8 - 0.0 - - - - - - -
26/10:30am 21.5 WSW 12 17 1012.1 - 0.0 - - - - - - -
26/10:00am 21.2 W 6 9 1012.5 - 0.0 - - - - - - -
26/09:30am 20.1 SW 9 18 1012.7 - 0.0 - - - - - - -
26/09:00am 19.3 SW 13 20 1012.7 - 0.0 - - - - - - -
26/08:30am 18.9 SW 11 17 1012.7 - 0.0 - - - - - - -
26/08:00am 18.9 SSW 13 20 1012.5 - 0.0 - - - - - - -
26/07:30am 18.7 SW 11 16 1012.3 - 0.0 - - - - - - -
26/07:15am 18.8 SW 15 25 1012.0 - 0.0 - - - - - - -
26/07:00am 18.8 WSW 11 17 1011.8 - 0.0 - - - - - - -
26/06:30am 19.2 SW 8 19 1011.4 - 0.0 - - - - - - -
26/06:00am 19.2 SW 6 13 1010.9 - 0.0 - - - - - - -
26/05:30am 20.0 SW 7 15 1010.4 - 0.0 - - - - - - -
26/05:00am 20.8 WSW 15 21 1009.7 - 0.0 - - - - - - -
26/04:40am 21.0 SW 17 27 1009.3 - 0.0 - - - - - - -
26/04:30am 21.2 SW 18 25 1009.3 - 0.0 - - - - - - -
26/04:09am 21.5 SW 16 26 1009.2 - 0.0 - - - - - - -
26/04:00am 21.8 SW 18 24 1009.2 - 0.0 - - - - - - -
26/03:30am 21.6 WSW 11 16 1009.2 - 0.0 - - - - - - -
26/03:00am 21.0 W 8 13 1009.0 - 0.0 - - - - - - -
26/02:30am 20.4 WNW 15 18 1008.9 - 0.0 - - - - - - -
26/02:00am 21.4 WNW 17 21 1008.8 - 0.0 - - - - - - -
26/01:30am 21.6 WNW 16 21 1008.9 - 0.0 - - - - - - -
26/01:00am 21.9 NW 11 14 1009.1 - 0.0 - - - - - - -
26/12:30am 22.4 NW 13 19 1009.1 - 0.0 - - - - - - -
26/12:00am 21.6 NNW 12 14 1009.3 - 0.0 - - - - - - -
 
Date/Time
EST
Temp

°C
Wind Pressure Rain
since 9am
mm
Weather Cloud Vis
km
Sea
Height
m
Swell
Dir
 
Speed
knots
Gust
knots
hPa Trend Height
m
Period
s
Dir
25/11:30pm 21.7 NNW 12 16 1009.6 - 0.0 - - - - - - -
25/11:00pm 21.5 NW 10 13 1009.8 - 0.0 - - - - - - -
25/10:30pm 22.0 NW 13 17 1010.2 - 0.0 - - - - - - -
25/10:00pm 22.2 NW 14 18 1010.3 - 0.0 - - - - - - -
25/09:30pm 22.4 NW 11 14 1010.4 - 0.0 - - - - - - -
25/09:00pm 22.7 NW 11 14 1010.4 - 0.0 - - - - - - -
25/08:30pm 22.9 NNW 13 16 1010.2 - 0.0 - - - - - - -
25/08:00pm 23.4 NNW 13 15 1010.0 - 0.0 - - - - - - -
25/07:30pm 23.8 N 5 10 1009.7 - 0.0 - - - - - - -
25/07:00pm 23.8 N 5 9 1009.4 - 0.0 - - - - - - -
25/06:30pm 23.9 N 6 13 1009.1 - 0.0 - - - - - - -
25/06:00pm 24.0 N 12 15 1008.8 - 0.0 - - - - - - -
25/05:30pm 24.2 NNE 12 15 1008.6 - 0.0 - - - - - - -
25/05:00pm 25.6 NNE 7 11 1008.3 - 0.0 - - - - - - -
25/04:30pm 26.7 NE 5 8 1008.1 - 0.0 - - - - - - -
25/04:00pm 26.2 NE 6 9 1008.0 - 0.0 - - - - - - -
25/03:30pm 27.4 NNE 4 7 1008.0 - 0.0 - - - - - - -
25/03:00pm 27.9 NE 6 9 1008.0 - 0.0 - - - - - - -
25/02:30pm 28.9 NNE 8 9 1007.9 - 0.0 - - - - - - -
25/02:00pm 29.0 N 5 9 1007.9 - 0.0 - - - - - - -
25/01:30pm 28.7 N 4 6 1008.1 - 0.0 - - - - - - -
25/01:00pm 28.0 NNW 4 5 1008.5 - 0.0 - - - - - - -
25/12:30pm 28.4 NNW 6 8 1009.2 - 0.0 - - - - - - -
25/12:00pm 28.8 NNW 7 10 1009.6 - 0.0 - - - - - - -
25/11:30am 27.5 NNW 7 9 1009.9 - 0.0 - - - - - - -
25/11:00am 25.9 WNW 8 10 1010.1 - 0.0 - - - - - - -
25/10:30am 24.7 WNW 10 12 1010.5 - 0.0 - - - - - - -
25/10:00am 23.6 WNW 14 16 1010.6 - 0.0 - - - - - - -
25/09:30am 22.9 WNW 15 17 1010.7 - 0.0 - - - - - - -
25/09:00am 22.6 WNW 13 17 1010.9 - 0.0 - - - - - - -
25/08:30am 21.9 WNW 14 18 1010.7 - 0.0 - - - - - - -
25/08:00am 21.3 WNW 15 19 1010.7 - 0.0 - - - - - - -
25/07:30am 20.9 WNW 14 18 1010.4 - 0.0 - - - - - - -
25/07:00am 20.5 WNW 14 16 1010.2 - 0.0 - - - - - - -
25/06:30am 20.3 WNW 13 17 1010.0 - 0.0 - - - - - - -
25/06:00am 20.1 NW 13 16 1009.8 - 0.0 - - - - - - -
25/05:30am 19.7 NW 12 15 1009.7 - 0.0 - - - - - - -
25/05:00am 19.9 WNW 13 15 1009.4 - 0.0 - - - - - - -
25/04:30am 20.0 NW 14 16 1009.3 - 0.0 - - - - - - -
25/04:00am 19.3 NW 13 15 1009.4 - 0.0 - - - - - - -
25/03:30am 19.6 NW 12 15 1009.4 - 0.0 - - - - - - -
25/03:00am 20.1 NW 13 16 1009.2 - 0.0 - - - - - - -
25/02:30am 20.2 NW 14 17 1009.4 - 0.0 - - - - - - -
25/02:00am 20.2 NW 12 18 1009.5 - 0.0 - - - - - - -
25/01:30am 20.1 NW 12 15 1009.5 - 0.0 - - - - - - -
25/01:00am 20.5 NW 12 15 1009.9 - 0.0 - - - - - - -
25/12:30am 21.0 NW 13 16 1009.9 - 0.0 - - - - - - -
25/12:00am 21.1 NW 12 15 1009.9 - 0.0 - - - - - - -
 
Date/Time
EST
Temp

°C
Wind Pressure Rain
since 9am
mm
Weather Cloud Vis
km
Sea
Height
m
Swell
Dir
 
Speed
knots
Gust
knots
hPa Trend Height
m
Period
s
Dir
24/11:30pm 21.1 NW 12 15 1010.1 - 0.0 - - - - - - -
24/11:00pm 21.5 NW 12 15 1010.2 - 0.0 - - - - - - -
24/10:30pm 21.4 NNW 12 16 1010.2 - 0.0 - - - - - - -
24/10:00pm 21.5 NNW 11 14 1010.3 - 0.0 - - - - - - -
24/09:30pm 21.8 NNW 10 15 1010.4 - 0.0 - - - - - - -
24/09:00pm 22.4 NNW 6 12 1010.2 - 0.0 - - - - - - -
24/08:30pm 22.4 N 7 14 1010.3 - 0.0 - - - - - - -
24/08:00pm 22.4 N 10 16 1010.0 - 0.0 - - - - - - -
24/07:30pm 22.4 NNE 11 14 1009.8 - 0.0 - - - - - - -
24/07:00pm 22.2 NNE 10 13 1009.5 - 0.0 - - - - - - -
24/06:30pm 22.3 NNE 10 13 1009.1 - 0.0 - - - - - - -
24/06:00pm 22.1 NNE 8 11 1008.8 - 0.0 - - - - - - -
24/05:30pm 22.5 NE 7 10 1008.4 - 0.0 - - - - - - -
24/05:00pm 23.5 NE 7 9 1008.2 - 0.0 - - - - - - -
24/04:30pm 23.9 ENE 7 10 1008.1 - 0.0 - - - - - - -
24/04:00pm 24.1 NE 6 8 1007.9 - 0.0 - - - - - - -
24/03:30pm 24.2 ENE 6 8 1007.8 - 0.0 - - - - - - -
24/03:00pm 24.9 NE 6 8 1007.8 - 0.0 - - - - - - -
24/02:30pm 25.5 NE 5 7 1007.9 - 0.0 - - - - - - -
24/02:00pm 27.4 NNE 6 9 1007.8 - 0.0 - - - - - - -
24/01:30pm 27.4 NNE 5 8 1008.1 - 0.0 - - - - - - -
24/01:00pm 27.2 NNE 8 10 1008.5 - 0.0 - - - - - - -
24/12:30pm 27.3 N 5 7 1008.8 - 0.0 - - - - - - -
24/12:00pm 26.5 NNW 5 8 1009.2 - 0.0 - - - - - - -
24/11:30am 26.1 NNW 5 8 1009.9 - 0.0 - - - - - - -
24/11:00am 24.8 NW 8 12 1010.6 - 0.0 - - - - - - -
24/10:30am 23.0 WNW 10 13 1010.7 - 0.0 - - - - - - -

Other Formats:

Comma delimited format used in spreadsheet applications
http://www.bom.gov.au/fwo/IDQ60701/IDQ60701.94584.axf

JavaScript Object Notation format (JSON) in row-major order
http://www.bom.gov.au/fwo/IDQ60701/IDQ60701.94584.json